Time;durP1;ratioP1;P1;durP2;ratioP2;P2;SDS_P1;SDS_P2;PMS_P1;PMS_P2;Temp;Humidity;BMP_temperature;BMP_pressure;BME280_temperature;BME280_humidity;BME280_pressure;Samples;Min_cycle;Max_cycle;Signal;HPM_P1;HPM_P2
2021/06/15 00:01:18;;;;;;;11.93;7.05;;;;;;;19.32;69.36;99362.65;1738132;82;20986;-72
2021/06/15 00:03:45;;;;;;;10.13;7.00;;;;;;;19.22;69.57;99354.47;1736265;82;21028;-73
2021/06/15 00:06:13;;;;;;;13.62;7.80;;;;;;;19.11;69.89;99359.20;1718237;82;21057;-73
2021/06/15 00:08:39;;;;;;;11.97;7.83;;;;;;;19.10;70.09;99363.40;1732816;82;21532;-73
2021/06/15 00:11:06;;;;;;;9.93;7.42;;;;;;;19.19;69.97;99365.55;1738249;82;21521;-74
2021/06/15 00:13:34;;;;;;;12.70;8.50;;;;;;;19.18;70.10;99366.55;1738163;82;21577;-73
2021/06/15 00:16:01;;;;;;;12.20;8.28;;;;;;;19.10;70.32;99364.22;1696268;82;21069;-73
2021/06/15 00:18:28;;;;;;;15.18;9.13;;;;;;;19.07;70.48;99369.94;1727940;82;21078;-73
2021/06/15 00:20:55;;;;;;;18.77;10.23;;;;;;;19.12;70.32;99367.58;1738052;82;21060;-72
2021/06/15 00:23:21;;;;;;;20.08;10.40;;;;;;;19.16;70.27;99362.20;1738430;81;21106;-72
2021/06/15 00:25:48;;;;;;;13.62;9.18;;;;;;;19.09;70.45;99361.72;1719205;82;21070;-73
2021/06/15 00:28:14;;;;;;;15.75;9.05;;;;;;;19.02;70.68;99360.25;1718732;82;21013;-73
2021/06/15 00:30:42;;;;;;;15.53;9.20;;;;;;;19.05;70.72;99358.55;1719779;82;20989;-73
2021/06/15 00:33:10;;;;;;;13.03;8.75;;;;;;;19.12;70.58;99350.67;1718004;83;21651;-73
2021/06/15 00:35:37;;;;;;;12.95;8.33;;;;;;;19.08;70.65;99361.38;1734411;82;21477;-73
2021/06/15 00:38:04;;;;;;;12.75;8.13;;;;;;;19.03;70.80;99363.27;1733723;82;21568;-74
2021/06/15 00:40:33;;;;;;;12.47;7.75;;;;;;;19.02;70.81;99362.10;1705154;82;21299;-73
2021/06/15 00:42:59;;;;;;;11.88;7.95;;;;;;;19.08;70.74;99359.56;1738209;82;21026;-73
2021/06/15 00:45:28;;;;;;;10.50;7.33;;;;;;;19.03;70.88;99357.05;1723231;82;21009;-73
2021/06/15 00:47:55;;;;;;;11.55;7.92;;;;;;;18.92;71.12;99355.07;1723915;82;21454;-73
2021/06/15 00:50:24;;;;;;;9.68;7.15;;;;;;;18.82;71.38;99354.40;1738490;82;21021;-72
2021/06/15 00:52:52;;;;;;;11.33;7.30;;;;;;;18.77;71.43;99344.22;1738157;81;21093;-73
2021/06/15 00:55:24;;;;;;;11.63;7.55;;;;;;;18.88;71.28;99342.18;1738075;82;20996;-73
2021/06/15 00:57:52;;;;;;;12.43;8.10;;;;;;;18.88;71.34;99344.86;1733490;82;21009;-73
2021/06/15 01:00:21;;;;;;;11.85;8.20;;;;;;;18.82;71.52;99337.84;1718248;83;21065;-72
2021/06/15 01:02:50;;;;;;;9.55;7.42;;;;;;;18.76;71.75;99339.86;1718284;82;21536;-72
2021/06/15 01:05:18;;;;;;;11.48;7.92;;;;;;;18.76;71.90;99343.88;1731489;81;21056;-73
2021/06/15 01:08:35;;;;;;;11.15;8.78;;;;;;;18.85;71.68;99342.02;1735768;82;20942;-73
2021/06/15 01:11:21;;;;;;;13.22;9.70;;;;;;;18.79;71.63;99342.19;1703501;82;21041;-73
2021/06/15 01:14:21;;;;;;;11.65;9.05;;;;;;;18.59;71.81;99338.22;1724482;82;21061;-73
2021/06/15 01:16:55;;;;;;;12.98;8.70;;;;;;;18.50;72.11;99340.92;1718877;82;21010;-73
2021/06/15 01:20:03;;;;;;;12.25;8.95;;;;;;;18.58;72.25;99339.22;1734935;82;21005;-74
2021/06/15 01:23:03;;;;;;;11.40;9.15;;;;;;;18.49;72.54;99343.25;1738115;81;21029;-73
2021/06/15 01:25:59;;;;;;;12.85;9.58;;;;;;;18.39;72.96;99349.30;1737682;81;21120;-73
2021/06/15 01:28:39;;;;;;;12.75;9.88;;;;;;;18.44;72.90;99339.39;1705606;82;21008;-73
2021/06/15 01:31:18;;;;;;;13.30;9.73;;;;;;;18.45;72.92;99337.06;1723574;82;21469;-73
2021/06/15 01:33:48;;;;;;;12.20;8.98;;;;;;;18.37;73.15;99341.92;1708308;82;21060;-73
2021/06/15 01:36:16;;;;;;;13.18;9.28;;;;;;;18.30;73.41;99343.59;1689731;85;21092;-73
2021/06/15 01:38:52;;;;;;;12.70;9.48;;;;;;;18.36;73.41;99349.61;1660279;85;21040;-73
2021/06/15 01:41:30;;;;;;;11.97;8.88;;;;;;;18.39;73.46;99345.28;1675256;85;22102;-73
2021/06/15 01:44:06;;;;;;;11.80;9.03;;;;;;;18.29;73.75;99348.62;1698437;84;21555;-73
2021/06/15 01:46:43;;;;;;;11.60;8.88;;;;;;;18.17;74.15;99354.31;1652626;86;21043;-73
2021/06/15 01:49:14;;;;;;;12.23;9.30;;;;;;;18.26;74.08;99347.61;1690759;84;21064;-74
2021/06/15 01:51:43;;;;;;;13.28;9.50;;;;;;;18.30;74.02;99352.47;1688228;85;21544;-73
2021/06/15 01:54:11;;;;;;;15.43;9.48;;;;;;;18.26;74.22;99351.63;1687718;84;21585;-73
2021/06/15 01:56:49;;;;;;;13.35;8.55;;;;;;;18.23;74.51;99350.12;1686264;84;21101;-73
2021/06/15 01:59:18;;;;;;;10.58;8.63;;;;;;;18.25;74.53;99353.95;1683684;85;21578;-73
2021/06/15 02:01:54;;;;;;;10.50;8.15;;;;;;;18.32;74.31;99348.28;1657705;85;21621;-74
2021/06/15 02:04:25;;;;;;;13.65;9.85;;;;;;;18.30;74.37;99348.94;1634928;85;21095;-72
2021/06/15 02:06:54;;;;;;;10.80;9.45;;;;;;;18.23;74.60;99354.65;1683829;85;20983;-73
2021/06/15 02:09:25;;;;;;;13.65;9.50;;;;;;;18.18;74.69;99347.96;1683814;85;21000;-72
2021/06/15 02:12:04;;;;;;;13.22;8.73;;;;;;;18.32;74.46;99352.30;1680105;85;21519;-73
2021/06/15 02:14:44;;;;;;;12.43;9.75;;;;;;;18.38;74.18;99350.29;1683465;85;21071;-73
2021/06/15 02:17:19;;;;;;;11.18;9.30;;;;;;;18.34;74.14;99351.64;1678199;85;21550;-73
2021/06/15 02:19:51;;;;;;;11.63;8.93;;;;;;;18.30;74.17;99353.81;1684024;85;21047;-73
2021/06/15 02:22:21;;;;;;;11.45;8.68;;;;;;;18.36;73.84;99351.46;1687394;85;21075;-72
2021/06/15 02:24:53;;;;;;;10.20;8.93;;;;;;;18.40;73.56;99354.98;1688487;84;20986;-73
2021/06/15 02:27:23;;;;;;;13.72;9.90;;;;;;;18.36;73.62;99354.97;1669513;85;21014;-73
2021/06/15 02:29:55;;;;;;;14.63;9.65;;;;;;;18.30;73.89;99355.63;1688524;84;21001;-72
2021/06/15 02:32:30;;;;;;;16.87;9.00;;;;;;;18.34;73.89;99356.99;1691282;82;21076;-74
2021/06/15 02:34:57;;;;;;;11.08;8.95;;;;;;;18.46;73.54;99355.63;1691358;85;20979;-72
2021/06/15 02:37:29;;;;;;;13.05;9.28;;;;;;;18.38;73.65;99352.97;1691297;83;21513;-74
2021/06/15 02:39:59;;;;;;;16.42;10.23;;;;;;;18.24;73.98;99358.48;1686112;85;21045;-73
2021/06/15 02:42:28;;;;;;;11.65;9.33;;;;;;;18.13;74.35;99362.34;1687097;85;20991;-73
2021/06/15 02:44:57;;;;;;;13.00;9.48;;;;;;;18.24;74.29;99371.05;1687098;85;21553;-73
2021/06/15 02:47:25;;;;;;;12.58;10.20;;;;;;;18.34;74.23;99373.05;1663560;85;21080;-73
2021/06/15 02:49:57;;;;;;;13.43;9.15;;;;;;;18.36;74.49;99370.20;1686850;84;21025;-73
2021/06/15 02:52:44;;;;;;;12.35;9.08;;;;;;;18.42;74.55;99373.55;1686967;84;21163;-73
2021/06/15 02:55:30;;;;;;;11.93;9.78;;;;;;;18.58;74.30;99369.52;1636357;86;21080;-73
2021/06/15 02:57:57;;;;;;;13.93;9.85;;;;;;;18.75;73.98;99369.50;1663711;85;21046;-73
2021/06/15 03:00:23;;;;;;;12.35;9.93;;;;;;;18.78;73.85;99369.15;1686971;85;21119;-73
2021/06/15 03:02:51;;;;;;;12.70;9.75;;;;;;;18.75;73.84;99365.48;1684987;85;21474;-73
2021/06/15 03:05:18;;;;;;;13.40;10.05;;;;;;;18.76;73.84;99363.11;1687127;85;21709;-73
2021/06/15 03:07:47;;;;;;;11.20;9.58;;;;;;;18.82;73.70;99365.97;1687062;84;21070;-73
2021/06/15 03:10:15;;;;;;;13.40;10.55;;;;;;;18.83;73.79;99362.26;1687072;85;21090;-73
2021/06/15 03:13:13;;;;;;;16.73;11.90;;;;;;;18.79;74.03;99367.63;1686938;85;21668;-73
2021/06/15 03:15:52;;;;;;;14.95;10.13;;;;;;;18.79;74.18;99363.61;1686857;85;21660;-73
2021/06/15 03:18:35;;;;;;;11.75;10.03;;;;;;;18.95;74.06;99365.47;1687327;85;20999;-73
2021/06/15 03:21:05;;;;;;;10.82;9.73;;;;;;;19.12;73.78;99367.58;1687063;85;21006;-72
2021/06/15 03:24:02;;;;;;;13.08;11.10;;;;;;;19.19;73.75;99369.05;1686912;85;21118;-72
2021/06/15 03:26:50;;;;;;;13.08;9.93;;;;;;;19.28;73.70;99370.72;1686850;85;21086;-74
2021/06/15 03:29:21;;;;;;;10.80;9.53;;;;;;;19.45;73.37;99370.13;1687329;85;21550;-74
2021/06/15 03:31:51;;;;;;;13.08;10.55;;;;;;;19.66;73.17;99372.70;1687032;85;21037;-74
2021/06/15 03:34:21;;;;;;;15.28;12.40;;;;;;;20.10;72.77;99372.12;1687280;85;21007;-72
2021/06/15 03:36:49;;;;;;;16.20;13.65;;;;;;;20.71;71.40;99371.28;1663586;85;21070;-72
2021/06/15 03:39:16;;;;;;;20.10;13.13;;;;;;;21.32;69.96;99372.97;1687358;85;21617;-73
2021/06/15 03:41:44;;;;;;;16.45;13.35;;;;;;;21.96;68.22;99366.07;1687204;85;21558;-73
2021/06/15 03:44:12;;;;;;;17.95;13.35;;;;;;;22.58;66.48;99369.13;1687171;85;21036;-74
2021/06/15 03:46:38;;;;;;;15.18;12.82;;;;;;;23.10;65.04;99371.55;1687174;85;21496;-73
2021/06/15 03:49:09;;;;;;;16.52;12.10;;;;;;;23.56;63.58;99369.08;1687113;85;21577;-73
2021/06/15 03:51:38;;;;;;;14.60;10.28;;;;;;;23.99;62.15;99376.59;1685879;85;21013;-74
2021/06/15 03:54:06;;;;;;;13.90;10.20;;;;;;;24.33;61.03;99366.14;1679192;85;21679;-74
2021/06/15 03:56:37;;;;;;;12.53;10.03;;;;;;;24.67;60.19;99368.35;1679173;85;21069;-74
2021/06/15 03:59:07;;;;;;;12.07;9.88;;;;;;;25.03;59.22;99365.68;1683031;85;21475;-74
2021/06/15 04:01:36;;;;;;;11.40;9.00;;;;;;;25.34;58.24;99370.88;1686952;85;21511;-74
2021/06/15 04:04:05;;;;;;;12.35;9.45;;;;;;;25.59;57.37;99366.14;1686565;84;21040;-74
2021/06/15 04:06:34;;;;;;;13.22;9.35;;;;;;;25.89;56.49;99369.61;1687098;84;21004;-74
2021/06/15 04:09:04;;;;;;;10.18;9.08;;;;;;;26.25;55.65;99369.50;1687201;84;21517;-74
2021/06/15 04:11:33;;;;;;;11.93;9.20;;;;;;;26.62;54.11;99370.96;1687169;84;21071;-74
2021/06/15 04:14:00;;;;;;;13.83;8.70;;;;;;;26.84;53.00;99367.05;1687017;84;21005;-74
2021/06/15 04:16:26;;;;;;;10.20;8.25;;;;;;;26.98;52.04;99377.55;1686047;85;21029;-73
2021/06/15 04:18:54;;;;;;;9.43;8.05;;;;;;;27.04;51.62;99371.73;1685209;85;21506;-73
2021/06/15 04:21:21;;;;;;;9.15;8.25;;;;;;;27.21;51.60;99371.95;1686627;85;21112;-75
2021/06/15 04:23:51;;;;;;;8.28;7.53;;;;;;;27.43;50.60;99372.88;1687694;83;21160;-74
2021/06/15 04:26:17;;;;;;;8.75;7.60;;;;;;;27.55;50.18;99372.42;1686396;83;21043;-74
2021/06/15 04:28:43;;;;;;;9.50;7.12;;;;;;;27.65;49.68;99378.68;1683985;85;20974;-74
2021/06/15 04:31:10;;;;;;;7.65;6.67;;;;;;;27.80;49.42;99371.45;1738781;82;21480;-75
2021/06/15 04:33:36;;;;;;;6.67;5.95;;;;;;;27.96;48.42;99376.23;1709696;83;21599;-74
2021/06/15 04:36:05;;;;;;;8.00;6.37;;;;;;;28.20;48.04;99379.06;1729580;82;21548;-75
2021/06/15 04:38:36;;;;;;;7.33;6.30;;;;;;;28.43;47.17;99373.38;1725893;83;21017;-75
2021/06/15 04:41:11;;;;;;;7.50;6.35;;;;;;;28.61;46.42;99369.72;1738045;82;21490;-75
2021/06/15 04:43:49;;;;;;;6.40;5.80;;;;;;;28.59;46.78;99363.16;1733474;82;21480;-75
2021/06/15 04:46:42;;;;;;;8.68;5.83;;;;;;;28.69;45.61;99364.48;1739432;82;21519;-76
2021/06/15 04:49:22;;;;;;;8.30;6.20;;;;;;;28.72;45.50;99363.48;1743333;82;21556;-76
2021/06/15 04:51:52;;;;;;;6.28;5.67;;;;;;;28.85;45.19;99370.58;1735606;82;21540;-74
2021/06/15 04:54:22;;;;;;;9.30;5.33;;;;;;;29.04;44.33;99367.70;1734822;82;21024;-74
2021/06/15 04:56:50;;;;;;;6.20;5.60;;;;;;;29.17;44.41;99368.82;1735573;82;21036;-74
2021/06/15 04:59:22;;;;;;;5.83;5.33;;;;;;;29.25;43.27;99365.71;1731159;82;21083;-74
2021/06/15 05:01:49;;;;;;;6.87;5.65;;;;;;;29.30;42.95;99364.19;1729617;82;21000;-74
2021/06/15 05:04:15;;;;;;;7.97;5.50;;;;;;;29.30;42.57;99369.63;1725952;83;21100;-75
2021/06/15 05:06:42;;;;;;;8.18;5.50;;;;;;;29.35;42.38;99356.12;1690965;85;21574;-74
2021/06/15 05:09:09;;;;;;;8.10;5.12;;;;;;;29.46;41.53;99367.52;1725783;82;21560;-74
2021/06/15 05:11:37;;;;;;;6.65;5.10;;;;;;;29.53;41.81;99372.30;1741067;82;20965;-74
2021/06/15 05:14:07;;;;;;;6.80;4.90;;;;;;;29.52;41.25;99362.47;1743524;82;21025;-75
2021/06/15 05:16:35;;;;;;;8.03;5.50;;;;;;;29.39;41.13;99370.94;1742628;82;21024;-74
2021/06/15 05:19:01;;;;;;;6.97;5.45;;;;;;;29.22;41.29;99370.29;1728353;82;20999;-74
2021/06/15 05:21:40;;;;;;;7.47;4.85;;;;;;;29.17;41.92;99368.82;1731025;81;21552;-75
2021/06/15 05:24:32;;;;;;;10.82;4.90;;;;;;;29.25;42.10;99367.63;1730416;82;21072;-76
2021/06/15 05:26:58;;;;;;;5.60;5.00;;;;;;;29.35;42.37;99367.02;1726611;83;21551;-75
2021/06/15 05:30:13;;;;;;;7.17;5.25;;;;;;;29.41;41.42;99367.41;1812920;79;22768;-76
2021/06/15 05:32:42;;;;;;;6.87;4.87;;;;;;;29.23;41.76;99369.23;1780327;80;21072;-76
2021/06/15 05:35:11;;;;;;;10.70;5.45;;;;;;;29.18;41.85;99373.17;1780740;80;20985;-76
2021/06/15 05:37:37;;;;;;;5.60;4.40;;;;;;;29.19;41.60;99374.84;1782035;80;20938;-75
2021/06/15 05:40:05;;;;;;;8.13;4.90;;;;;;;29.18;41.22;99365.00;1786954;80;20985;-76
2021/06/15 05:42:32;;;;;;;7.28;5.50;;;;;;;29.07;41.27;99376.77;1787998;80;20977;-75
2021/06/15 05:44:59;;;;;;;5.15;4.65;;;;;;;28.93;41.96;99371.56;1787944;80;21103;-75
2021/06/15 05:47:26;;;;;;;6.28;4.40;;;;;;;28.91;42.00;99368.27;1787822;80;20993;-76
2021/06/15 05:49:53;;;;;;;6.22;4.50;;;;;;;28.86;42.02;99370.03;1787993;80;21040;-74
2021/06/15 05:52:19;;;;;;;7.20;5.03;;;;;;;28.89;42.55;99378.55;1777558;80;21036;-74
2021/06/15 05:54:45;;;;;;;6.83;5.50;;;;;;;29.06;41.61;99377.28;1764474;81;21040;-76
2021/06/15 05:57:12;;;;;;;6.08;4.40;;;;;;;29.04;41.59;99374.52;1756032;81;21008;-76
2021/06/15 05:59:38;;;;;;;10.63;5.25;;;;;;;28.93;42.41;99372.11;1734035;83;21099;-76
2021/06/15 06:02:06;;;;;;;5.75;5.12;;;;;;;28.82;42.77;99379.20;1740231;81;21543;-77
2021/06/15 06:04:38;;;;;;;7.28;4.85;;;;;;;28.72;43.04;99373.53;1734287;83;21670;-77
2021/06/15 06:09:41;;;;;;;6.70;5.00;;;;;;;28.52;43.78;99367.87;1708647;81;21028;-75
2021/06/15 06:12:10;;;;;;;6.17;4.75;;;;;;;28.58;44.29;99366.94;1759505;81;21044;-75
2021/06/15 06:14:36;;;;;;;8.40;5.10;;;;;;;28.63;43.82;99362.67;1751079;81;21464;-76
2021/06/15 06:17:03;;;;;;;7.70;5.20;;;;;;;28.69;43.97;99368.57;1751333;81;21064;-75
2021/06/15 06:19:30;;;;;;;7.03;4.15;;;;;;;28.78;44.07;99365.78;1744762;81;21020;-75
2021/06/15 06:21:56;;;;;;;12.93;5.17;;;;;;;28.97;43.31;99369.75;1739341;81;21060;-75
2021/06/15 06:24:23;;;;;;;7.42;5.35;;;;;;;29.19;42.96;99372.11;1760246;81;21119;-75
2021/06/15 06:26:50;;;;;;;10.88;6.05;;;;;;;29.40;42.76;99361.16;1739060;81;21027;-75
2021/06/15 06:29:18;;;;;;;7.92;5.90;;;;;;;29.43;42.59;99367.47;1747123;81;20985;-75
2021/06/15 06:31:44;;;;;;;5.80;5.22;;;;;;;29.25;43.02;99368.44;1737375;82;21528;-75
2021/06/15 06:34:12;;;;;;;13.95;10.85;;;;;;;29.14;43.42;99366.56;1721760;82;20949;-76
2021/06/15 06:36:38;;;;;;;7.40;6.70;;;;;;;29.12;43.78;99368.71;1741254;81;21032;-76
2021/06/15 06:39:06;;;;;;;7.00;5.53;;;;;;;29.12;43.72;99368.71;1724390;83;21072;-75
2021/06/15 06:41:34;;;;;;;5.87;5.28;;;;;;;29.11;44.11;99367.05;1733634;82;21011;-75
2021/06/15 06:44:01;;;;;;;7.15;5.37;;;;;;;29.17;43.57;99370.19;1736002;81;21535;-75
2021/06/15 06:46:30;;;;;;;8.08;5.30;;;;;;;29.08;43.72;99368.36;1730587;82;21607;-75
2021/06/15 06:48:56;;;;;;;8.95;6.55;;;;;;;29.10;43.85;99373.56;1743086;82;21008;-74
2021/06/15 06:51:23;;;;;;;9.95;5.97;;;;;;;29.17;44.25;99367.98;1732108;82;21076;-73
2021/06/15 06:53:49;;;;;;;8.63;6.00;;;;;;;29.27;44.26;99365.47;1748567;82;21028;-73
2021/06/15 06:56:16;;;;;;;9.65;6.25;;;;;;;29.38;43.94;99366.00;1745874;82;21012;-76
2021/06/15 06:58:47;;;;;;;6.17;5.53;;;;;;;29.41;43.62;99368.27;1742934;82;21008;-75
2021/06/15 07:01:14;;;;;;;7.90;5.85;;;;;;;29.34;43.49;99362.66;1738450;82;21460;-79
2021/06/15 07:03:41;;;;;;;6.70;6.10;;;;;;;29.18;44.00;99363.64;1753117;82;21575;-77
2021/06/15 07:06:08;;;;;;;6.72;5.97;;;;;;;29.12;44.18;99363.27;1753888;82;20982;-77
2021/06/15 07:08:35;;;;;;;14.15;6.47;;;;;;;29.07;43.69;99361.80;1749226;80;21071;-73
2021/06/15 07:11:02;;;;;;;9.53;6.25;;;;;;;28.94;43.97;99364.25;1730914;80;21025;-74
2021/06/15 07:13:29;;;;;;;7.35;5.62;;;;;;;28.91;44.20;99362.83;1748153;80;21036;-74
2021/06/15 07:15:57;;;;;;;9.80;5.80;;;;;;;28.94;44.37;99352.00;1746537;80;21032;-74
2021/06/15 07:18:24;;;;;;;6.30;5.70;;;;;;;29.02;44.20;99356.25;1740491;80;21051;-75
2021/06/15 07:20:52;;;;;;;9.23;6.95;;;;;;;28.94;44.25;99356.89;1729404;82;21083;-75
2021/06/15 07:23:18;;;;;;;7.97;6.80;;;;;;;28.74;44.71;99349.64;1729707;80;21075;-75
2021/06/15 07:25:46;;;;;;;11.63;6.65;;;;;;;28.68;44.92;99349.22;1723653;83;21155;-77
2021/06/15 07:28:12;;;;;;;7.33;5.83;;;;;;;28.63;45.24;99351.80;1731912;80;21071;-75
2021/06/15 07:30:39;;;;;;;7.58;6.05;;;;;;;28.57;44.99;99348.95;1726433;82;21048;-75
2021/06/15 07:33:05;;;;;;;8.60;6.03;;;;;;;28.59;45.50;99347.36;1733683;80;20957;-76
2021/06/15 07:35:33;;;;;;;7.25;6.42;;;;;;;28.63;44.73;99343.64;1743829;80;21005;-76
2021/06/15 07:38:03;;;;;;;9.70;6.90;;;;;;;28.63;45.36;99344.45;1748864;82;20978;-77
2021/06/15 07:40:31;;;;;;;10.43;6.83;;;;;;;28.52;45.20;99342.04;1745958;80;21027;-77
2021/06/15 07:43:00;;;;;;;6.80;6.10;;;;;;;28.49;45.20;99342.50;1734378;82;21413;-75
2021/06/15 07:45:29;;;;;;;7.78;6.15;;;;;;;28.50;45.38;99344.16;1750148;80;21033;-76
2021/06/15 07:47:57;;;;;;;6.85;6.10;;;;;;;28.48;45.64;99340.02;1732790;82;21282;-76
2021/06/15 07:50:23;;;;;;;7.30;6.40;;;;;;;28.38;45.24;99339.27;1749071;80;20997;-76
2021/06/15 07:52:49;;;;;;;9.28;6.55;;;;;;;28.28;45.39;99342.55;1745898;82;21004;-74
2021/06/15 07:55:17;;;;;;;6.60;5.92;;;;;;;28.24;45.71;99335.39;1738845;80;21452;-76
2021/06/15 07:57:43;;;;;;;7.25;6.55;;;;;;;28.19;45.72;99335.81;1733833;80;21009;-75
2021/06/15 08:00:11;;;;;;;9.50;6.08;;;;;;;28.11;45.90;99332.36;1736306;82;22047;-75
2021/06/15 08:02:43;;;;;;;7.50;6.08;;;;;;;28.06;45.74;99333.59;1746878;80;21084;-75
2021/06/15 08:05:12;;;;;;;8.95;8.03;;;;;;;28.02;45.78;99334.25;1744322;82;21149;-76
2021/06/15 08:07:38;;;;;;;10.08;9.18;;;;;;;27.92;45.90;99334.30;1734709;80;21059;-76
2021/06/15 08:10:08;;;;;;;8.73;6.37;;;;;;;27.84;46.28;99333.28;1743921;82;21056;-77
2021/06/15 08:12:34;;;;;;;7.35;6.65;;;;;;;27.76;46.69;99323.57;1746678;80;21051;-74
2021/06/15 08:15:01;;;;;;;8.50;6.80;;;;;;;27.79;47.32;99327.71;1748117;80;21021;-76
2021/06/15 08:17:27;;;;;;;6.72;6.12;;;;;;;27.86;46.64;99329.78;1732891;82;21066;-75
2021/06/15 08:19:53;;;;;;;9.83;6.78;;;;;;;27.87;46.66;99320.58;1746741;80;21334;-76
2021/06/15 08:22:20;;;;;;;7.37;6.75;;;;;;;27.89;46.96;99321.19;1744880;82;21111;-74
2021/06/15 08:24:46;;;;;;;10.10;7.25;;;;;;;27.84;46.46;99319.69;1762721;80;21036;-74
2021/06/15 08:27:12;;;;;;;7.65;5.87;;;;;;;27.76;46.80;99319.50;1703324;84;21539;-75
2021/06/15 08:29:39;;;;;;;8.83;6.50;;;;;;;27.81;46.83;99316.06;1687876;84;21015;-73
2021/06/15 08:32:06;;;;;;;7.85;7.05;;;;;;;27.83;46.42;99316.67;1663947;84;21117;-76
2021/06/15 08:34:35;;;;;;;7.03;6.33;;;;;;;27.79;46.53;99312.77;1685117;85;21025;-76
2021/06/15 08:37:03;;;;;;;14.95;6.70;;;;;;;27.74;46.70;99309.92;1662554;84;21030;-76
2021/06/15 08:39:30;;;;;;;7.33;6.55;;;;;;;27.72;47.07;99314.20;1653253;85;21081;-76
2021/06/15 08:41:56;;;;;;;7.00;6.30;;;;;;;27.82;46.92;99304.14;1671093;84;21315;-76
2021/06/15 08:44:22;;;;;;;7.47;6.33;;;;;;;27.98;46.41;99300.45;1668555;85;21343;-76
2021/06/15 08:46:48;;;;;;;6.92;6.20;;;;;;;28.07;45.51;99300.44;1682619;84;21375;-75
2021/06/15 08:49:15;;;;;;;8.88;6.65;;;;;;;28.10;45.40;99302.16;1658669;85;21026;-77
2021/06/15 08:51:41;;;;;;;13.75;6.97;;;;;;;28.05;45.66;99310.19;1660554;85;21141;-78
2021/06/15 08:54:11;;;;;;;14.43;7.00;;;;;;;28.00;46.28;99299.70;1676888;84;21461;-77
2021/06/15 08:56:40;;;;;;;;;;;;;;;28.04;46.36;99298.20;1629106;87;21144;-77
2021/06/15 08:59:26;;;;;;;7.35;6.60;;;;;;;28.14;45.75;99300.34;1654437;84;20310;-78
2021/06/15 09:01:56;;;;;;;10.08;6.55;;;;;;;28.05;46.14;99287.09;1660343;85;21053;-75
2021/06/15 09:04:23;;;;;;;9.83;6.12;;;;;;;28.07;45.87;99293.64;1683547;84;21010;-79
2021/06/15 09:06:50;;;;;;;7.12;5.90;;;;;;;28.02;45.29;99293.48;1669517;85;21005;-77
2021/06/15 09:09:17;;;;;;;9.15;5.58;;;;;;;28.06;44.75;99286.03;1690376;84;21034;-77
2021/06/15 09:11:56;;;;;;;6.45;5.80;;;;;;;28.11;44.71;99285.34;1671207;81;21013;-77
2021/06/15 09:14:48;;;;;;;6.60;5.78;;;;;;;28.11;44.60;99288.05;1655341;85;21093;-77
2021/06/15 09:17:29;;;;;;;7.33;6.65;;;;;;;28.02;44.48;99278.53;1671365;84;21049;-76
2021/06/15 09:19:57;;;;;;;7.33;5.83;;;;;;;28.01;45.41;99279.08;1669983;84;21157;-78
2021/06/15 09:22:33;;;;;;;7.33;6.62;;;;;;;28.02;45.45;99282.61;1652810;85;21106;-78
2021/06/15 09:25:01;;;;;;;6.42;5.83;;;;;;;28.02;45.74;99282.61;1678960;85;21344;-76
2021/06/15 09:27:30;;;;;;;6.95;6.25;;;;;;;28.14;46.14;99276.70;1672028;84;20990;-75
2021/06/15 09:29:58;;;;;;;6.78;5.50;;;;;;;28.23;44.83;99286.16;1682984;83;21035;-74
2021/06/15 09:32:28;;;;;;;7.12;6.25;;;;;;;28.25;44.48;99284.04;1728968;80;22248;-73
2021/06/15 09:35:00;;;;;;;7.20;5.85;;;;;;;28.23;44.46;99276.64;1731310;82;21555;-73
2021/06/15 09:37:43;;;;;;;7.07;5.57;;;;;;;28.17;44.14;99276.22;1727083;82;21170;-73
2021/06/15 09:40:28;;;;;;;6.37;5.70;;;;;;;28.03;44.49;99272.08;1774997;80;21437;-73
2021/06/15 09:43:16;;;;;;;6.20;5.60;;;;;;;27.92;45.09;99270.44;1731706;81;21608;-78
2021/06/15 09:45:47;;;;;;;9.13;5.45;;;;;;;27.94;45.54;99261.53;1727502;82;21583;-74
2021/06/15 09:48:36;;;;;;;5.62;5.03;;;;;;;28.00;45.16;99268.45;1729428;80;21068;-73
2021/06/15 09:51:11;;;;;;;6.35;5.53;;;;;;;28.02;44.84;99259.00;1742865;80;21053;-73
2021/06/15 09:53:40;;;;;;;8.93;5.47;;;;;;;28.10;44.91;99263.30;1727176;82;21589;-73
2021/06/15 09:56:09;;;;;;;8.20;5.30;;;;;;;28.13;45.01;99256.02;1735040;80;21007;-73
2021/06/15 09:58:52;;;;;;;6.40;4.97;;;;;;;28.16;44.46;99260.15;1733422;82;20981;-73
2021/06/15 10:01:35;;;;;;;7.20;5.50;;;;;;;28.17;44.87;99261.27;1753701;80;20989;-73
2021/06/15 10:04:15;;;;;;;8.37;5.30;;;;;;;28.23;43.99;99254.89;1739829;82;21012;-74
2021/06/15 10:06:47;;;;;;;14.80;5.50;;;;;;;28.27;44.53;99257.45;1743564;80;21280;-73
2021/06/15 10:09:28;;;;;;;11.25;5.72;;;;;;;28.42;43.77;99250.70;1732213;80;20957;-72
2021/06/15 10:12:00;;;;;;;6.47;5.05;;;;;;;28.58;43.69;99254.06;1709820;82;21613;-73
2021/06/15 10:14:27;;;;;;;5.78;4.75;;;;;;;28.78;42.47;99250.14;1742496;82;21024;-73
2021/06/15 10:16:54;;;;;;;39.38;7.85;;;;;;;28.84;41.91;99246.98;1735224;82;21455;-73
2021/06/15 10:19:24;;;;;;;6.45;5.20;;;;;;;28.82;41.80;99243.70;1729568;80;21155;-73
2021/06/15 10:21:51;;;;;;;7.62;4.95;;;;;;;28.88;42.33;99238.11;1723167;82;21268;-73
2021/06/15 10:24:22;;;;;;;13.13;5.05;;;;;;;29.01;42.24;99237.00;1766789;80;21572;-72
2021/06/15 10:26:47;;;;;;;7.10;5.67;;;;;;;29.07;42.35;99242.03;1751380;80;21044;-72
2021/06/15 10:29:13;;;;;;;8.25;4.95;;;;;;;29.10;42.58;99243.70;1742869;80;21013;-77
2021/06/15 10:31:42;;;;;;;30.17;24.92;;;;;;;29.09;42.05;99238.51;1745257;82;21037;-74
2021/06/15 10:34:09;;;;;;;58.90;49.15;;;;;;;28.94;42.27;99237.14;1743810;80;20977;-75
2021/06/15 10:36:46;;;;;;;6.28;4.40;;;;;;;28.83;41.87;99236.64;1711253;82;21444;-74
2021/06/15 10:39:40;;;;;;;5.75;4.50;;;;;;;28.67;41.55;99240.11;1723448;82;21008;-74
2021/06/15 10:42:15;;;;;;;7.62;4.50;;;;;;;28.57;41.46;99244.23;1751870;80;21099;-73
2021/06/15 10:44:45;;;;;;;6.22;4.78;;;;;;;28.51;42.18;99243.02;1714999;82;20941;-75
2021/06/15 10:47:14;;;;;;;6.05;4.60;;;;;;;28.49;42.48;99239.70;1723730;81;21056;-73
2021/06/15 10:50:00;;;;;;;5.33;4.80;;;;;;;28.46;42.27;99242.36;1750485;82;21028;-75
2021/06/15 10:52:42;;;;;;;8.73;4.92;;;;;;;28.45;42.36;99231.18;1746197;80;20985;-73
2021/06/15 10:55:49;;;;;;;4.87;4.42;;;;;;;28.49;42.68;99232.34;1693010;82;21064;-75
2021/06/15 10:58:34;;;;;;;5.42;4.50;;;;;;;28.56;41.70;99233.06;1743742;80;20985;-76
2021/06/15 11:01:18;;;;;;;4.97;4.50;;;;;;;28.56;40.59;99220.00;1744568;80;21554;-76
2021/06/15 11:03:56;;;;;;;6.45;4.53;;;;;;;28.61;41.13;99215.48;1742936;80;21016;-76
2021/06/15 11:06:34;;;;;;;10.43;4.62;;;;;;;28.72;41.46;99214.37;1731985;82;20968;-76
2021/06/15 11:09:15;;;;;;;7.55;4.72;;;;;;;28.71;41.62;99211.34;1735809;80;21525;-75
2021/06/15 11:11:40;;;;;;;5.50;4.40;;;;;;;28.55;42.19;99216.44;1735118;82;21013;-75
2021/06/15 11:14:20;;;;;;;5.65;4.53;;;;;;;28.39;42.57;99215.81;1740540;80;21005;-74
2021/06/15 11:16:50;;;;;;;6.60;4.37;;;;;;;28.24;42.66;99220.39;1724116;82;21029;-75
2021/06/15 11:19:27;;;;;;;5.08;4.28;;;;;;;28.10;42.94;99217.09;1742339;81;21598;-76
2021/06/15 11:22:04;;;;;;;6.95;4.33;;;;;;;28.00;42.92;99218.17;1735792;82;21037;-74
2021/06/15 11:24:50;;;;;;;6.25;4.22;;;;;;;27.92;42.86;99206.58;1751883;81;21016;-75
2021/06/15 11:27:28;;;;;;;7.95;4.53;;;;;;;27.85;43.06;99196.34;1754270;80;21076;-74
2021/06/15 11:30:01;;;;;;;6.55;4.20;;;;;;;27.78;43.21;99194.30;1743538;81;21018;-74
2021/06/15 11:32:30;;;;;;;8.00;4.58;;;;;;;27.71;42.93;99191.70;1746778;80;21502;-75
2021/06/15 11:35:03;;;;;;;4.90;4.37;;;;;;;27.70;42.52;99183.76;1755341;81;21025;-73
2021/06/15 11:37:44;;;;;;;13.22;5.00;;;;;;;27.73;42.67;99184.12;1697169;82;22179;-73
2021/06/15 11:40:33;;;;;;;6.87;4.30;;;;;;;27.79;43.47;99178.30;1690282;84;21329;-73
2021/06/15 11:43:16;;;;;;;5.90;4.28;;;;;;;27.82;42.87;99173.73;1677541;84;21038;-70
2021/06/15 11:45:48;;;;;;;10.68;4.65;;;;;;;27.85;43.23;99169.18;1688352;84;21079;-72
2021/06/15 11:48:35;;;;;;;6.97;4.70;;;;;;;27.89;42.89;99162.23;1695854;84;21077;-70
2021/06/15 11:51:02;;;;;;;5.15;4.37;;;;;;;27.93;42.96;99155.26;1745293;81;20990;-71
2021/06/15 11:53:30;;;;;;;5.92;4.28;;;;;;;28.00;42.65;99152.41;1730846;82;21077;-71